Time;durP1;ratioP1;P1;durP2;ratioP2;P2;SDS_P1;SDS_P2;PMS_P1;PMS_P2;Temp;Humidity;BMP_temperature;BMP_pressure;BME280_temperature;BME280_humidity;BME280_pressure;Samples;Min_cycle;Max_cycle;Signal;HPM_P1;HPM_P2
2020/12/20 00:01:17;;;;;;;7.45;3.40;;;;;;;16.28;76.65;101420.75;4817504;29;20102;-82
2020/12/20 00:03:44;;;;;;;5.93;3.20;;;;;;;16.26;76.69;101414.69;4820712;29;20023;-82
2020/12/20 00:06:10;;;;;;;5.78;3.28;;;;;;;16.27;76.41;101418.19;4810592;29;20056;-82
2020/12/20 00:08:35;;;;;;;7.68;3.50;;;;;;;16.28;75.86;101414.69;4816509;29;20034;-81
2020/12/20 00:11:01;;;;;;;6.82;3.55;;;;;;;16.28;76.23;101414.69;4799923;30;20070;-81
2020/12/20 00:13:26;;;;;;;6.60;3.50;;;;;;;16.29;75.94;101419.03;4816585;29;20031;-81
2020/12/20 00:15:52;;;;;;;5.15;3.40;;;;;;;16.28;76.48;101414.69;4819462;29;20114;-81
2020/12/20 00:18:17;;;;;;;9.77;3.70;;;;;;;16.29;76.14;101417.31;4816660;29;20458;-81
2020/12/20 00:20:43;;;;;;;5.68;3.17;;;;;;;16.27;76.66;101420.78;4817180;29;20668;-81
2020/12/20 00:23:08;;;;;;;6.53;3.25;;;;;;;16.28;76.41;101423.34;4807939;29;20022;-79
2020/12/20 00:25:34;;;;;;;4.32;3.15;;;;;;;16.27;76.26;101428.56;4773752;29;20387;-79
2020/12/20 00:27:59;;;;;;;4.85;3.03;;;;;;;16.28;76.22;101428.53;4772594;29;20051;-79
2020/12/20 00:30:24;;;;;;;5.28;3.05;;;;;;;16.27;75.78;101432.03;4775100;29;20094;-81
2020/12/20 00:32:51;;;;;;;5.57;3.33;;;;;;;16.28;75.93;101438.94;4790228;29;20034;-81
2020/12/20 00:35:17;;;;;;;7.43;3.10;;;;;;;16.28;75.78;101431.16;4788060;29;20072;-81
2020/12/20 00:37:42;;;;;;;4.85;3.08;;;;;;;16.28;75.70;101428.53;4823275;29;20035;-81
2020/12/20 00:40:08;;;;;;;5.57;3.30;;;;;;;16.28;75.82;101435.47;4808147;29;20031;-82
2020/12/20 00:42:33;;;;;;;4.47;2.65;;;;;;;16.27;75.73;101434.63;4793469;29;20056;-81
2020/12/20 00:44:58;;;;;;;4.90;2.72;;;;;;;16.26;75.74;101435.47;4792150;29;20027;-81
2020/12/20 00:47:24;;;;;;;5.82;2.97;;;;;;;16.26;75.74;101435.47;4805612;29;20059;-82
2020/12/20 00:49:49;;;;;;;4.70;2.88;;;;;;;16.27;75.35;101437.22;4799166;29;20031;-82
2020/12/20 00:52:15;;;;;;;4.32;2.63;;;;;;;16.27;75.75;101442.41;4810658;29;20055;-81
2020/12/20 00:54:43;;;;;;;4.90;2.95;;;;;;;16.29;75.47;101437.19;4807905;29;20125;-81
2020/12/20 00:57:09;;;;;;;4.63;3.00;;;;;;;16.28;75.43;101431.16;4822583;29;20031;-81
2020/12/20 00:59:34;;;;;;;3.88;2.70;;;;;;;16.28;75.10;101436.34;4816689;29;20041;-81
2020/12/20 01:01:59;;;;;;;4.70;2.70;;;;;;;16.28;75.56;101435.47;4801585;29;20031;-81
2020/12/20 01:04:25;;;;;;;3.78;2.42;;;;;;;16.28;75.59;101440.66;4823428;29;20054;-81
2020/12/20 01:06:56;;;;;;;4.30;2.78;;;;;;;16.28;75.40;101440.66;4809580;29;20041;-81
2020/12/20 01:09:22;;;;;;;5.57;2.63;;;;;;;16.27;75.74;101444.16;4818133;29;20121;-81
2020/12/20 01:11:48;;;;;;;3.67;2.53;;;;;;;16.28;75.47;101445.88;4819559;29;20042;-81
2020/12/20 01:14:13;;;;;;;4.97;2.72;;;;;;;16.28;75.24;101435.47;4811593;29;20073;-81
2020/12/20 01:16:38;;;;;;;4.22;2.45;;;;;;;16.27;75.64;101438.94;4823599;29;20043;-81
2020/12/20 01:19:04;;;;;;;4.82;2.72;;;;;;;16.27;75.38;101442.41;4811810;29;20026;-81
2020/12/20 01:21:29;;;;;;;4.55;2.83;;;;;;;16.27;75.37;101433.75;4816374;29;20019;-81
2020/12/20 01:23:54;;;;;;;4.70;2.78;;;;;;;16.28;75.00;101445.88;4810835;29;20085;-82
2020/12/20 01:26:21;;;;;;;4.90;2.70;;;;;;;16.27;75.40;101439.81;4815804;29;20038;-82
2020/12/20 01:28:47;;;;;;;4.32;2.50;;;;;;;16.25;74.84;101439.78;4822664;29;20027;-81
2020/12/20 01:31:12;;;;;;;4.65;2.63;;;;;;;16.26;74.89;101440.66;4822405;29;20037;-81
2020/12/20 01:33:39;;;;;;;3.55;2.40;;;;;;;16.26;74.83;101448.44;4819634;29;20046;-82
2020/12/20 01:36:08;;;;;;;4.10;2.40;;;;;;;16.27;75.36;101444.16;4819547;29;20041;-81
2020/12/20 01:38:34;;;;;;;4.22;2.58;;;;;;;16.27;74.85;101450.19;4807624;29;20035;-81
2020/12/20 01:41:00;;;;;;;3.35;2.20;;;;;;;16.27;75.23;101449.34;4820663;29;20050;-81
2020/12/20 01:43:38;;;;;;;4.05;2.63;;;;;;;16.26;75.16;101451.03;4807566;29;20026;-81
2020/12/20 01:46:04;;;;;;;4.82;2.53;;;;;;;16.26;75.06;101453.63;4823600;29;20042;-81
2020/12/20 01:48:30;;;;;;;3.38;2.35;;;;;;;16.27;74.99;101457.13;4830087;29;20031;-80
2020/12/20 01:50:55;;;;;;;4.38;2.08;;;;;;;16.25;74.98;101457.09;4817259;29;20095;-81
2020/12/20 01:53:21;;;;;;;4.60;2.45;;;;;;;16.25;74.90;101457.97;4819359;29;20430;-80
2020/12/20 01:55:48;;;;;;;4.05;2.45;;;;;;;16.26;74.98;101458.84;4801368;29;20039;-80
2020/12/20 01:58:14;;;;;;;4.65;2.40;;;;;;;16.25;74.73;101457.09;4802144;29;20444;-81
2020/12/20 02:00:39;;;;;;;4.28;2.40;;;;;;;16.25;74.83;101462.31;4813276;29;20068;-81
2020/12/20 02:03:04;;;;;;;3.38;2.17;;;;;;;16.28;74.93;101466.63;4813859;29;20063;-81
2020/12/20 02:05:30;;;;;;;4.00;2.30;;;;;;;16.28;74.55;101461.44;4786949;29;20181;-80
2020/12/20 02:07:56;;;;;;;3.88;2.13;;;;;;;16.25;74.60;101457.97;4816136;29;20038;-80
2020/12/20 02:10:21;;;;;;;3.60;2.33;;;;;;;16.27;74.32;101463.19;4819091;29;20061;-81
2020/12/20 02:12:49;;;;;;;5.25;2.00;;;;;;;16.26;74.80;101466.63;4802552;29;20102;-82
2020/12/20 02:15:15;;;;;;;3.00;2.08;;;;;;;16.27;74.58;101467.50;4823481;29;20081;-82
2020/12/20 02:17:40;;;;;;;4.32;2.40;;;;;;;16.26;74.21;101461.44;4824116;29;20031;-82
2020/12/20 02:20:06;;;;;;;3.75;2.03;;;;;;;16.28;74.65;101461.44;4807293;29;20039;-81
2020/12/20 02:22:33;;;;;;;3.55;2.33;;;;;;;16.25;74.43;101459.72;4819870;29;20031;-81
2020/12/20 02:24:59;;;;;;;3.13;2.00;;;;;;;16.27;74.51;101458.00;4824472;29;20189;-81
2020/12/20 02:27:26;;;;;;;3.50;2.00;;;;;;;16.23;74.74;101443.25;4807043;29;20064;-82
2020/12/20 02:29:52;;;;;;;3.33;2.20;;;;;;;16.24;74.40;101440.66;4824070;29;20034;-82
2020/12/20 02:32:17;;;;;;;2.75;2.10;;;;;;;16.27;74.42;101444.16;4823360;29;20039;-82
2020/12/20 02:34:43;;;;;;;3.63;2.00;;;;;;;16.25;74.28;101450.19;4821866;29;20068;-81
2020/12/20 02:37:08;;;;;;;3.22;1.95;;;;;;;16.25;74.33;101452.78;4824462;29;20033;-81
2020/12/20 02:39:34;;;;;;;2.72;1.70;;;;;;;16.25;74.49;101444.13;4822531;29;20087;-81
2020/12/20 02:42:00;;;;;;;3.33;2.25;;;;;;;16.24;74.52;101450.16;4822685;29;20054;-81
2020/12/20 02:44:26;;;;;;;3.08;2.10;;;;;;;16.26;74.43;101453.63;4825312;29;20017;-82
2020/12/20 02:46:51;;;;;;;3.08;2.00;;;;;;;16.24;74.15;101458.84;4824604;29;20078;-82
2020/12/20 02:49:17;;;;;;;3.75;2.17;;;;;;;16.25;74.30;101457.09;4824940;29;20031;-82
2020/12/20 02:51:42;;;;;;;3.63;1.88;;;;;;;16.25;74.17;101454.50;4822247;29;20042;-82
2020/12/20 02:54:08;;;;;;;2.88;2.00;;;;;;;16.25;74.25;101454.50;4826495;29;20046;-81
2020/12/20 02:56:34;;;;;;;4.90;2.17;;;;;;;16.24;74.19;101451.06;4851275;29;20027;-81
2020/12/20 02:58:59;;;;;;;2.50;1.70;;;;;;;16.25;74.62;101452.78;4842804;29;20034;-81
2020/12/20 03:01:28;;;;;;;3.83;1.90;;;;;;;16.24;74.05;101455.34;4832554;29;20030;-81
2020/12/20 03:03:53;;;;;;;5.75;1.90;;;;;;;16.25;74.30;101452.78;4840996;29;20030;-81
2020/12/20 03:06:19;;;;;;;2.88;2.00;;;;;;;16.24;74.39;101448.47;4857678;29;20031;-81
2020/12/20 03:08:44;;;;;;;2.85;1.77;;;;;;;16.22;74.22;101451.88;4839282;29;20103;-81
2020/12/20 03:11:10;;;;;;;3.55;1.98;;;;;;;16.25;73.89;101457.97;4838595;29;20041;-81
2020/12/20 03:13:35;;;;;;;3.35;2.03;;;;;;;16.25;73.91;101460.56;4833487;29;20046;-81
2020/12/20 03:16:01;;;;;;;2.97;1.80;;;;;;;16.25;73.99;101460.56;4824616;29;20144;-81
2020/12/20 03:18:26;;;;;;;3.47;1.88;;;;;;;16.25;73.92;101460.56;4836034;29;20026;-81
2020/12/20 03:20:53;;;;;;;2.53;1.70;;;;;;;16.27;73.66;101459.72;4833934;29;20053;-81
2020/12/20 03:23:19;;;;;;;3.42;1.77;;;;;;;16.24;73.97;101451.06;4836071;29;20019;-81
2020/12/20 03:25:44;;;;;;;4.25;1.80;;;;;;;16.27;73.95;101457.13;4838097;29;20138;-81
2020/12/20 03:28:10;;;;;;;2.38;1.70;;;;;;;16.25;73.85;101454.50;4840826;29;20037;-81
2020/12/20 03:30:36;;;;;;;2.47;1.77;;;;;;;16.24;73.68;101461.44;4839791;29;20014;-81
2020/12/20 03:33:01;;;;;;;3.08;1.75;;;;;;;16.27;73.91;101470.13;4825982;29;20050;-81
2020/12/20 03:35:26;;;;;;;4.13;1.70;;;;;;;16.24;73.59;101463.16;4820973;29;20038;-81
2020/12/20 03:37:54;;;;;;;2.63;1.67;;;;;;;16.25;73.71;101452.78;4828740;29;20046;-81
2020/12/20 03:40:21;;;;;;;3.13;2.28;;;;;;;16.26;73.48;101458.84;4827222;29;20125;-81
2020/12/20 03:42:48;;;;;;;2.72;1.52;;;;;;;16.27;73.63;101472.72;4850476;29;20046;-81
2020/12/20 03:45:14;;;;;;;4.03;1.73;;;;;;;16.27;73.55;101464.91;4833117;29;20075;-81
2020/12/20 03:47:40;;;;;;;2.85;1.52;;;;;;;16.27;73.25;101463.19;4835230;29;20062;-81
2020/12/20 03:50:05;;;;;;;2.67;1.52;;;;;;;16.27;73.35;101460.59;4826023;29;20041;-81
2020/12/20 03:52:31;;;;;;;3.50;1.90;;;;;;;16.27;73.32;101462.31;4819791;29;20054;-81
2020/12/20 03:54:56;;;;;;;2.35;1.65;;;;;;;16.27;73.67;101465.78;4806078;29;20047;-81
2020/12/20 03:57:21;;;;;;;3.00;1.67;;;;;;;16.27;72.97;101468.38;4814742;29;20046;-81
2020/12/20 03:59:47;;;;;;;1.95;1.38;;;;;;;16.27;73.15;101470.13;4819989;29;20034;-81
2020/12/20 04:02:12;;;;;;;2.00;1.35;;;;;;;16.28;73.46;101469.25;4820759;29;20068;-81
2020/12/20 04:04:37;;;;;;;2.13;1.40;;;;;;;16.27;73.32;101480.50;4806900;29;20031;-81
2020/12/20 04:07:03;;;;;;;2.55;1.50;;;;;;;16.27;73.14;101470.13;4816149;29;20043;-81
2020/12/20 04:09:28;;;;;;;3.42;1.73;;;;;;;16.26;73.20;101471.81;4806256;29;20092;-81
2020/12/20 04:11:53;;;;;;;3.55;1.83;;;;;;;16.27;73.23;101478.78;4805047;29;20047;-81
2020/12/20 04:14:19;;;;;;;4.60;1.60;;;;;;;16.27;72.85;101472.72;4817625;29;20113;-81
2020/12/20 04:16:44;;;;;;;3.53;1.45;;;;;;;16.28;72.98;101474.44;4803217;29;20543;-81
2020/12/20 04:19:10;;;;;;;2.28;1.50;;;;;;;16.28;72.94;101471.84;4818453;29;20034;-81
2020/12/20 04:21:35;;;;;;;3.15;1.60;;;;;;;16.27;72.88;101475.31;4799088;29;20125;-81
2020/12/20 04:24:00;;;;;;;3.22;1.77;;;;;;;16.28;72.77;101469.25;4795299;29;20027;-81
2020/12/20 04:26:26;;;;;;;2.78;1.58;;;;;;;16.28;72.86;101466.63;4782202;29;20027;-81
2020/12/20 04:28:52;;;;;;;2.47;1.60;;;;;;;16.29;72.59;101465.75;4805870;29;20038;-81
2020/12/20 04:31:17;;;;;;;2.72;1.60;;;;;;;16.27;72.39;101468.38;4809470;29;20542;-81
2020/12/20 04:33:43;;;;;;;2.42;1.50;;;;;;;16.28;72.51;101466.63;4797343;29;20034;-80
2020/12/20 04:36:08;;;;;;;2.63;1.50;;;;;;;16.29;72.30;101470.97;4814933;29;20046;-81
2020/12/20 04:38:34;;;;;;;2.75;1.55;;;;;;;16.27;72.27;101470.97;4818605;29;20363;-81
2020/12/20 04:41:00;;;;;;;2.80;1.50;;;;;;;16.27;72.22;101473.56;4810989;29;20065;-80
2020/12/20 04:43:26;;;;;;;2.50;1.58;;;;;;;16.27;72.17;101473.56;4816260;29;20094;-81
2020/12/20 04:45:53;;;;;;;4.28;1.77;;;;;;;16.29;72.27;101470.97;4814660;29;20039;-81
2020/12/20 04:48:20;;;;;;;3.42;1.60;;;;;;;16.28;72.13;101466.63;4805276;29;20022;-81
2020/12/20 04:50:47;;;;;;;2.47;1.55;;;;;;;16.29;72.02;101463.16;4814520;29;20087;-81
2020/12/20 04:53:13;;;;;;;3.50;1.45;;;;;;;16.27;72.13;101468.38;4842175;29;20065;-81
2020/12/20 04:55:39;;;;;;;2.50;1.10;;;;;;;16.28;71.75;101461.44;4825657;29;20058;-80
2020/12/20 04:58:04;;;;;;;1.95;1.23;;;;;;;16.29;71.56;101474.44;4815450;29;20038;-80
2020/12/20 05:00:30;;;;;;;3.60;1.45;;;;;;;16.29;71.51;101470.97;4835318;29;20477;-81
2020/12/20 05:02:56;;;;;;;2.15;1.38;;;;;;;16.28;71.81;101466.63;4825483;29;20026;-81
2020/12/20 05:05:21;;;;;;;4.45;1.50;;;;;;;16.28;71.58;101469.25;4841427;29;20099;-81
2020/12/20 05:07:47;;;;;;;2.17;1.50;;;;;;;16.29;71.36;101465.75;4828918;29;20033;-81
2020/12/20 05:10:12;;;;;;;2.60;1.70;;;;;;;16.29;71.29;101470.97;4827837;29;20044;-81
2020/12/20 05:12:38;;;;;;;3.58;1.30;;;;;;;16.29;71.02;101478.75;4842971;29;20038;-81
2020/12/20 05:15:24;;;;;;;2.42;1.42;;;;;;;16.30;71.27;101476.19;4844594;29;20401;-81
2020/12/20 05:18:06;;;;;;;3.58;1.60;;;;;;;16.28;71.19;101477.91;4847484;29;20021;-81
2020/12/20 05:20:39;;;;;;;3.17;1.60;;;;;;;16.29;71.01;101476.16;4839820;29;20022;-81
2020/12/20 05:23:05;;;;;;;2.33;1.50;;;;;;;16.29;70.77;101477.06;4822912;29;20082;-78
2020/12/20 05:25:31;;;;;;;2.67;1.40;;;;;;;16.31;71.24;101479.63;4822372;29;20050;-78
2020/12/20 05:28:11;;;;;;;2.28;1.30;;;;;;;16.30;71.07;101480.50;4826216;29;20109;-78
2020/12/20 05:30:38;;;;;;;1.98;1.42;;;;;;;16.30;70.55;101481.38;4841237;29;20100;-78
2020/12/20 05:33:04;;;;;;;4.47;1.70;;;;;;;16.31;70.76;101484.81;4824047;29;20029;-78
2020/12/20 05:35:30;;;;;;;2.30;1.20;;;;;;;16.31;70.25;101485.72;4841100;29;20034;-78
2020/12/20 05:37:56;;;;;;;2.40;1.30;;;;;;;16.31;70.33;101487.44;4838135;29;20121;-78
2020/12/20 05:40:29;;;;;;;1.90;1.25;;;;;;;16.31;70.16;101490.03;4809158;29;20078;-78
2020/12/20 05:42:59;;;;;;;2.53;1.10;;;;;;;16.31;70.58;101485.72;4838915;29;20478;-78
2020/12/20 05:45:27;;;;;;;2.13;1.30;;;;;;;16.31;70.49;101479.63;4818904;29;20034;-78
2020/12/20 05:47:53;;;;;;;2.13;1.20;;;;;;;16.30;70.36;101488.31;4829915;29;20034;-78
2020/12/20 05:50:18;;;;;;;2.97;1.50;;;;;;;16.30;70.29;101498.69;4841927;29;20110;-78
2020/12/20 05:53:05;;;;;;;1.70;1.30;;;;;;;16.30;70.10;101486.56;4841819;29;20574;-78
2020/12/20 05:55:48;;;;;;;2.47;1.20;;;;;;;16.30;70.27;101478.78;4838822;29;20057;-78
2020/12/20 05:58:15;;;;;;;2.13;1.23;;;;;;;16.30;70.18;101481.38;4839842;29;20045;-78
2020/12/20 06:00:42;;;;;;;2.28;1.30;;;;;;;16.31;70.04;101485.72;4840105;29;20379;-78
2020/12/20 06:03:08;;;;;;;1.88;1.30;;;;;;;16.31;70.16;101482.22;4828702;29;20046;-78
2020/12/20 06:05:46;;;;;;;2.50;1.10;;;;;;;16.31;70.00;101485.72;4824175;29;20868;-77
2020/12/20 06:08:14;;;;;;;2.13;1.23;;;;;;;16.31;69.83;101490.03;4837952;29;20045;-78
2020/12/20 06:10:44;;;;;;;2.15;1.42;;;;;;;16.31;69.90;101490.03;4808749;29;20478;-77
2020/12/20 06:13:12;;;;;;;2.33;1.08;;;;;;;16.30;69.94;101489.16;4843145;29;20094;-78
2020/12/20 06:15:41;;;;;;;4.35;1.20;;;;;;;16.31;69.26;101490.91;4827942;29;20060;-78
2020/12/20 06:18:15;;;;;;;3.28;1.50;;;;;;;16.31;69.40;101492.63;4844098;29;20090;-78
2020/12/20 06:21:00;;;;;;;2.63;1.35;;;;;;;16.32;69.66;101494.38;4827422;29;20101;-78
2020/12/20 06:23:31;;;;;;;1.77;1.10;;;;;;;16.32;69.65;101489.19;4828169;29;20038;-79
2020/12/20 06:25:58;;;;;;;2.83;1.48;;;;;;;16.30;69.58;101493.50;4830317;29;20097;-79
2020/12/20 06:28:29;;;;;;;2.05;1.25;;;;;;;16.30;69.28;101494.34;4832795;29;20029;-79
2020/12/20 06:30:55;;;;;;;2.42;1.23;;;;;;;16.31;69.57;101503.00;4830329;29;20049;-79
2020/12/20 06:33:27;;;;;;;2.72;1.35;;;;;;;16.31;69.06;101505.59;4825888;29;20030;-79
2020/12/20 06:35:53;;;;;;;2.55;1.40;;;;;;;16.30;68.68;101507.34;4828407;29;20066;-80
2020/12/20 06:38:21;;;;;;;3.72;1.73;;;;;;;16.31;69.13;101503.91;4827026;29;20038;-78
2020/12/20 06:40:46;;;;;;;5.75;2.03;;;;;;;16.32;68.81;101505.63;4845697;29;20065;-78
2020/12/20 06:43:12;;;;;;;6.95;2.70;;;;;;;16.36;68.84;101509.13;4811332;29;20041;-79
2020/12/20 06:45:43;;;;;;;7.38;2.92;;;;;;;16.38;68.62;101526.44;4843173;29;20049;-79
2020/12/20 06:48:09;;;;;;;8.10;2.60;;;;;;;16.42;68.52;101532.53;4842320;29;20072;-79
2020/12/20 06:50:38;;;;;;;7.22;2.67;;;;;;;16.44;68.54;101533.44;4825803;29;20034;-79
2020/12/20 06:53:05;;;;;;;4.03;2.20;;;;;;;16.48;68.22;101524.75;4825807;29;20114;-78
2020/12/20 06:55:30;;;;;;;4.65;2.00;;;;;;;16.49;68.47;101517.88;4828290;29;20041;-79
2020/12/20 06:58:02;;;;;;;5.65;2.15;;;;;;;16.50;68.03;101523.03;4811101;29;20042;-79
2020/12/20 07:00:56;;;;;;;7.93;2.17;;;;;;;16.52;68.01;101526.53;4829225;29;20069;-79
2020/12/20 07:03:21;;;;;;;5.00;2.08;;;;;;;16.56;67.77;101530.03;4828224;29;20101;-78
2020/12/20 07:05:48;;;;;;;4.03;1.90;;;;;;;16.58;67.53;101518.78;4858231;29;20017;-79
2020/12/20 07:08:23;;;;;;;3.97;1.85;;;;;;;16.58;67.63;101525.69;4837583;29;20022;-79
2020/12/20 07:10:52;;;;;;;3.92;1.90;;;;;;;16.60;67.04;101527.44;4840846;29;20056;-79
2020/12/20 07:13:32;;;;;;;3.97;1.85;;;;;;;16.62;67.28;101520.53;4838679;29;20030;-79
2020/12/20 07:16:05;;;;;;;3.67;1.70;;;;;;;16.64;67.12;101530.94;4825698;29;20036;-79
2020/12/20 07:18:53;;;;;;;4.30;1.55;;;;;;;16.64;67.35;101533.53;4838283;29;20042;-79
2020/12/20 07:21:19;;;;;;;2.90;1.60;;;;;;;16.66;67.19;101532.69;4825770;29;20042;-79
2020/12/20 07:23:50;;;;;;;3.50;1.73;;;;;;;16.65;67.18;101530.06;4842059;29;20018;-78
2020/12/20 07:26:16;;;;;;;3.35;1.50;;;;;;;16.66;66.47;101534.41;4819154;29;20788;-79
2020/12/20 07:28:41;;;;;;;4.22;1.73;;;;;;;16.67;66.79;101539.59;4841820;29;20041;-80
2020/12/20 07:31:29;;;;;;;3.75;1.70;;;;;;;16.69;67.05;101533.56;4832607;29;20037;-80
2020/12/20 07:33:57;;;;;;;3.13;1.48;;;;;;;16.68;67.13;101540.50;4924361;24;20090;-81
2020/12/20 07:36:42;;;;;;;3.38;1.38;;;;;;;16.70;66.93;101540.47;4811284;29;20026;-80
2020/12/20 07:39:51;;;;;;;2.97;1.40;;;;;;;16.73;67.28;101540.50;4844835;29;20089;-82
2020/12/20 07:42:40;;;;;;;3.95;1.50;;;;;;;16.70;67.16;101543.97;4746878;30;20063;-82
2020/12/20 07:45:19;;;;;;;3.20;1.10;;;;;;;16.73;67.03;101550.91;4746199;30;20045;-81
2020/12/20 07:48:24;;;;;;;2.58;1.27;;;;;;;16.73;67.41;101551.78;4756051;30;20033;-82
2020/12/20 07:51:48;;;;;;;4.72;1.48;;;;;;;16.72;67.18;101560.41;4734163;30;20045;-82
2020/12/20 07:54:36;;;;;;;4.60;1.42;;;;;;;16.74;67.29;101563.91;4727078;30;20044;-82
2020/12/20 07:57:07;;;;;;;4.03;1.42;;;;;;;16.75;67.12;101570.84;4745813;30;20079;-81
2020/12/20 07:59:35;;;;;;;4.18;1.58;;;;;;;16.73;67.28;101569.97;4778502;30;20066;-81
2020/12/20 08:02:23;;;;;;;4.85;1.50;;;;;;;16.76;67.13;101585.56;4762817;30;20048;-81
2020/12/20 08:13:20;;;;;;;3.58;1.30;;;;;;;16.79;66.97;101589.94;5751608;23;20024;-82
2020/12/20 08:16:25;;;;;;;3.15;1.40;;;;;;;16.79;66.78;101589.94;4815429;29;20034;-80
2020/12/20 08:19:03;;;;;;;2.33;1.27;;;;;;;16.80;66.88;101597.75;4837096;29;20235;-78
2020/12/20 08:21:49;;;;;;;2.28;1.20;;;;;;;16.74;67.50;101596.81;4841806;29;20038;-82
2020/12/20 08:24:17;;;;;;;4.30;1.48;;;;;;;16.70;67.82;101601.16;4836879;29;20037;-81
2020/12/20 08:26:49;;;;;;;5.47;1.80;;;;;;;16.64;67.69;101596.78;4860128;29;20174;-82
2020/12/20 08:33:04;;;;;;;9.23;2.00;;;;;;;16.68;66.80;101589.88;4919989;24;20056;-82
2020/12/20 09:02:07;;;;;;;10.00;1.90;;;;;;;16.86;65.73;101594.34;5191013;23;20057;-80
2020/12/20 09:04:37;;;;;;;8.52;1.70;;;;;;;16.89;65.91;101609.06;4841715;29;20022;-80
2020/12/20 09:18:46;;;;;;;2.92;1.40;;;;;;;16.83;66.28;101616.00;5799833;23;20080;-81
2020/12/20 09:21:22;;;;;;;2.97;1.20;;;;;;;16.83;66.28;101623.78;4866660;29;20025;-81
2020/12/20 09:23:58;;;;;;;3.08;1.33;;;;;;;16.82;66.14;101614.22;4849216;29;20025;-80
2020/12/20 09:26:24;;;;;;;2.78;1.48;;;;;;;16.85;66.50;101623.78;4827865;29;20136;-81
2020/12/20 09:28:49;;;;;;;4.63;1.58;;;;;;;16.86;66.31;101625.53;4859156;29;20116;-81
2020/12/20 09:31:18;;;;;;;5.40;1.52;;;;;;;16.86;66.09;101633.31;4828036;29;20079;-80
2020/12/20 09:33:48;;;;;;;3.15;1.25;;;;;;;16.86;66.34;101630.72;4824895;29;20121;-80
2020/12/20 09:36:24;;;;;;;4.65;1.42;;;;;;;16.86;66.34;101633.31;4855453;29;20556;-80
2020/12/20 09:38:55;;;;;;;2.38;1.27;;;;;;;16.86;66.06;101634.19;4850421;29;20030;-79
2020/12/20 09:41:23;;;;;;;3.20;1.42;;;;;;;16.88;66.03;101634.22;4849212;29;20028;-80
2020/12/20 09:43:50;;;;;;;4.13;1.10;;;;;;;16.88;66.32;101634.22;4863990;29;20049;-80
2020/12/20 09:46:21;;;;;;;2.92;1.23;;;;;;;16.90;66.02;101642.00;4863330;29;20025;-80
2020/12/20 09:48:50;;;;;;;2.60;1.48;;;;;;;16.89;66.00;101637.66;4862619;29;20033;-80
2020/12/20 09:51:17;;;;;;;3.55;1.20;;;;;;;16.90;66.35;101635.09;4830739;29;20052;-80
2020/12/20 09:53:45;;;;;;;3.80;1.20;;;;;;;16.92;65.94;101640.28;4862871;29;20477;-81
2020/12/20 09:56:13;;;;;;;3.03;1.40;;;;;;;16.92;65.95;101635.97;4849795;29;20057;-81
2020/12/20 09:58:38;;;;;;;2.72;1.00;;;;;;;16.92;65.86;101630.78;4839309;29;20033;-81
2020/12/20 10:01:03;;;;;;;2.70;1.20;;;;;;;16.92;66.31;101635.06;4851502;29;20071;-81
2020/12/20 10:03:29;;;;;;;4.97;1.35;;;;;;;16.91;66.08;101634.22;4871420;29;20032;-81
2020/12/20 10:05:58;;;;;;;8.93;1.30;;;;;;;16.93;66.04;101632.50;4842639;29;20061;-81
2020/12/20 10:08:27;;;;;;;2.83;1.33;;;;;;;16.93;65.91;101634.22;4869819;29;20081;-82
2020/12/20 10:10:56;;;;;;;4.38;1.48;;;;;;;16.93;66.01;101632.50;4852322;29;20068;-81
2020/12/20 10:13:30;;;;;;;2.33;1.20;;;;;;;16.94;65.87;101625.56;4873621;29;20054;-81
2020/12/20 10:15:56;;;;;;;5.05;1.50;;;;;;;16.94;65.82;101621.25;4858090;29;20025;-80
2020/12/20 10:18:24;;;;;;;1.77;1.10;;;;;;;16.96;65.84;101634.25;4883032;29;20033;-81
2020/12/20 10:23:58;;;;;;;3.65;1.20;;;;;;;16.96;65.91;101623.84;4873594;29;20032;-81
2020/12/20 10:26:24;;;;;;;2.53;1.13;;;;;;;16.97;65.82;101626.47;4870771;29;20033;-81
2020/12/20 10:51:08;;;;;;;5.07;1.30;;;;;;;17.04;65.41;101614.34;5083413;23;20029;-83
2020/12/20 10:59:36;;;;;;;3.58;1.20;;;;;;;17.16;64.96;101621.34;4123188;27;20045;-83
2020/12/20 11:02:05;;;;;;;2.03;1.02;;;;;;;17.17;65.00;101615.28;4876414;29;20041;-81
2020/12/20 11:04:30;;;;;;;3.17;1.20;;;;;;;17.20;65.50;101617.88;4861610;29;20064;-81
2020/12/20 11:07:04;;;;;;;2.78;1.35;;;;;;;17.24;65.53;101617.91;4863466;29;20053;-81
2020/12/20 11:09:30;;;;;;;;;;;;;;;17.25;65.67;101617.06;4852922;29;20033;-81
2020/12/20 11:11:56;;;;;;;2.58;1.10;;;;;;;17.26;65.90;101617.91;4850875;29;19923;-81
2020/12/20 11:14:24;;;;;;;4.80;1.20;;;;;;;17.25;66.04;101617.06;4828876;29;20042;-81
2020/12/20 11:17:27;;;;;;;4.63;1.35;;;;;;;17.30;66.36;101611.00;4875370;29;20021;-81
2020/12/20 11:19:54;;;;;;;2.47;1.10;;;;;;;17.30;65.93;101611.00;4849934;29;20046;-80
2020/12/20 11:22:20;;;;;;;2.70;1.00;;;;;;;17.32;66.24;101617.09;4859413;29;20085;-81
2020/12/20 11:24:46;;;;;;;4.20;1.20;;;;;;;17.32;66.56;101611.88;4862647;29;20029;-81
2020/12/20 11:27:11;;;;;;;2.63;1.30;;;;;;;17.33;66.44;101611.88;4847706;29;20059;-77
2020/12/20 11:37:01;;;;;;;2.53;1.02;;;;;;;17.33;66.73;101617.06;4847489;29;20066;-82
2020/12/20 11:39:27;;;;;;;2.70;1.00;;;;;;;17.31;66.64;101620.53;4797254;29;20538;-79
2020/12/20 11:41:52;;;;;;;3.63;1.20;;;;;;;17.33;67.01;101619.69;4844560;29;20065;-80
2020/12/20 11:44:19;;;;;;;3.83;1.17;;;;;;;17.34;67.30;101625.78;4840502;29;20030;-80
2020/12/20 11:46:45;;;;;;;4.28;1.30;;;;;;;17.33;67.29;101621.41;4851213;29;20054;-81
2020/12/20 12:09:42;;;;;;;4.72;1.30;;;;;;;17.31;67.35;101629.25;5483937;23;20036;-83
2020/12/20 12:37:55;;;;;;;3.35;1.20;;;;;;;17.38;67.22;101653.53;4189848;27;20050;-84
2020/12/20 12:41:09;;;;;;;3.90;1.27;;;;;;;17.35;67.01;101633.56;4837500;29;20066;-83
2020/12/20 12:47:27;;;;;;;3.85;1.20;;;;;;;17.35;67.33;101636.16;4836318;29;20110;-83
2020/12/20 12:50:37;;;;;;;3.78;1.00;;;;;;;17.35;67.23;101641.38;4799229;29;20028;-84
2020/12/20 12:53:49;;;;;;;3.13;1.13;;;;;;;17.34;67.19;101633.56;4804035;30;20043;-83
2020/12/20 13:03:01;;;;;;;2.03;1.00;;;;;;;17.27;67.44;101628.34;4803243;29;20046;-84
2020/12/20 13:05:47;;;;;;;3.53;1.20;;;;;;;17.28;67.52;101637.88;4792895;30;20051;-84
2020/12/20 13:08:46;;;;;;;3.17;1.30;;;;;;;17.27;67.43;101640.50;4808556;30;20644;-83
2020/12/20 13:15:28;;;;;;;2.42;1.23;;;;;;;17.25;67.46;101637.88;4848770;29;20091;-84
2020/12/20 13:24:54;;;;;;;3.47;1.52;;;;;;;17.25;67.47;101634.41;4858663;29;20049;-85
2020/12/20 13:30:15;;;;;;;4.38;1.33;;;;;;;17.26;67.49;101630.94;3988819;27;20060;-81
2020/12/20 13:32:40;;;;;;;2.53;1.30;;;;;;;17.28;67.50;101626.59;4839320;29;20045;-80
2020/12/20 13:37:38;;;;;;;3.40;1.30;;;;;;;17.31;67.05;101636.16;4852965;29;20053;-81
2020/12/20 13:40:10;;;;;;;5.63;1.38;;;;;;;17.34;67.27;101628.38;4854970;29;20084;-82
2020/12/20 13:42:44;;;;;;;3.67;1.13;;;;;;;17.35;67.29;101633.56;4839857;29;20064;-82
2020/12/20 13:45:10;;;;;;;4.47;1.45;;;;;;;17.36;66.88;101627.50;4859651;29;20021;-83
2020/12/20 13:51:38;;;;;;;3.72;1.23;;;;;;;17.39;67.04;101643.13;4848992;29;20093;-82
2020/12/20 13:54:05;;;;;;;3.53;1.60;;;;;;;17.39;67.08;101645.72;4871640;29;20034;-82
2020/12/20 13:56:31;;;;;;;4.10;1.63;;;;;;;17.40;67.01;101650.09;4853152;29;20045;-83
2020/12/20 13:58:56;;;;;;;5.75;1.60;;;;;;;17.38;67.36;101638.78;4858019;29;20022;-83
2020/12/20 14:01:22;;;;;;;4.47;1.50;;;;;;;17.38;66.95;101635.34;4836822;29;20105;-82
2020/12/20 14:03:47;;;;;;;3.70;1.30;;;;;;;17.38;66.95;101632.72;4834970;29;20500;-83
2020/12/20 14:06:13;;;;;;;2.58;1.20;;;;;;;17.39;66.90;101639.66;4849869;29;20048;-83
2020/12/20 14:08:38;;;;;;;3.28;1.20;;;;;;;17.39;66.73;101645.72;4834730;29;20045;-82
2020/12/20 14:11:04;;;;;;;3.35;1.33;;;;;;;17.39;66.82;101647.47;4844244;29;20030;-82
2020/12/20 14:13:29;;;;;;;4.32;1.40;;;;;;;17.40;66.96;101647.47;4848230;29;20026;-82
2020/12/20 14:15:54;;;;;;;3.22;1.25;;;;;;;17.39;66.74;101647.47;4844299;29;20030;-82
2020/12/20 14:58:24;;;;;;;2.40;1.17;;;;;;;17.44;66.61;101641.44;4864247;23;20064;-81
2020/12/20 15:00:49;;;;;;;2.97;1.45;;;;;;;17.45;66.41;101639.69;4852220;29;20037;-81